Two Harbors Investment Corp (TWO) Latest Bloomsberg Price


Mffais Ranking #1949 Overall / #32 Industry
Industry: Mortgage Finance

Number of Companies: 211 (Ranking #782 Overall/#5 Industry)
Inflow: $ 31,372 (K) (Ranking #1543 Overall/#17 Industry)
Outflow: $ -45,137 (K)
Mffais Flow: $ -13,765 (K) (Ranking #1949 Overall/#32 Industry)


Receive a FREE weekly executive review of stocks moving into the top 10, taking the top industy spot or moving up within their industry. Sent directly to your Inbox every Saturday. Sign up today and get last week's review immediately sent to you.

We value and respect your privacy. Please read our Terms and Conditions which states our firm commitment to your privacy. Your email address will not be shared with a third party, nor will it be sold or used for purposes other than subscription for the weekly review.

Owner CPOR Shares Action Qty Chg Invested (K) Total Current Value (K)
Clough Capital Partners L P 2016-09-30 2,213,803 Added More 1,130,048 $ 9,854 $ 19,304
Yorktown Management Research Co Inc 2016-09-30 1,960,000 Added More 535,600 $ 4,670 $ 17,091
Bessemer Group Inc 2016-09-30 196,754 New Holding 196,754 $ 1,715 $ 1,715
Cetera Advisor Networks Llc 2016-09-30 436,017 Added More 146,804 $ 1,280 $ 3,802
Beck Capital Management Llc 2016-09-30 407,374 Added More 124,337 $ 1,084 $ 3,552
Hl Financial Services Llc 2016-09-30 109,098 New Holding 109,098 $ 951 $ 951
Kempen Capital Management N V 2016-09-30 2,486,012 Added More 94,100 $ 820 $ 21,678
Global X Management Co Llc 2016-09-30 1,061,510 Added More 93,584 $ 816 $ 9,256
Gsa Capital Partners Llp 2016-09-30 195,500 Added More 90,666 $ 790 $ 1,704
Guggenheim Capital Llc 2016-09-30 783,100 Added More 73,276 $ 638 $ 6,828
Pdt Partners Llc 2016-09-30 89,206 Added More 66,906 $ 583 $ 777
Jane Street Group Llc 2016-09-30 84,974 Added More 42,009 $ 366 $ 740
Kennedy Capital Management Inc 2016-09-30 530,253 Added More 39,789 $ 346 $ 4,623
Sei Investments Co 2016-09-30 158,781 Added More 35,355 $ 308 $ 1,384
Moore Capital Management Lp 2016-09-30 185,000 Added More 35,000 $ 305 $ 1,613
Kcg Holdings Inc 2016-09-30 49,980 Added More 33,702 $ 293 $ 435
Icm Asset Management Inc Wa 2016-09-30 80,965 Added More 31,980 $ 278 $ 706
Rhumbline Advisers 2016-09-30 290,950 Added More 30,629 $ 267 $ 2,537
Emerald Acquisition Ltd 2016-09-30 3,398,169 Added More 28,235 $ 246 $ 29,632
Baird Financial Group Inc 2016-09-30 114,433 Added More 27,761 $ 242 $ 997
Clinton Group Inc 2016-09-30 26,605 New Holding 26,605 $ 231 $ 231
Putnam Investments Llc 2016-09-30 707,814 Added More 26,266 $ 229 $ 6,172
Omers Administration Corp 2016-09-30 276,400 Added More 25,800 $ 224 $ 2,410
Fifth Third Bancorp 2016-09-30 39,220 Added More 25,220 $ 219 $ 341
Td Asset Management Inc 2016-09-30 250,000 Added More 25,000 $ 218 $ 2,180
Stockman Asset Management 2016-09-30 24,500 New Holding 24,500 $ 213 $ 213
Verition Fund Management Llc 2016-09-30 24,225 New Holding 24,225 $ 211 $ 211
Cadence Capital Management Llc 2016-09-30 43,260 Added More 24,080 $ 209 $ 377
State Of Alaska Department Of Revenue 2016-09-30 23,579 New Holding 23,579 $ 205 $ 205
Dekabank Deutsche Girozentrale 2016-09-30 23,112 New Holding 23,112 $ 201 $ 201
Tlp Group Llc 2016-09-30 22,445 New Holding 22,445 $ 195 $ 195
Northern Trust Corp 2016-09-30 3,302,502 Added More 22,403 $ 195 $ 28,797
Pitcairn Co 2016-09-30 18,429 New Holding 18,429 $ 160 $ 160
Two Sigma Securities Llc 2016-09-30 17,871 New Holding 17,871 $ 155 $ 155
Partners Group Holding Ag 2016-09-30 33,000 Added More 17,000 $ 148 $ 287
Eqis Capital Management Inc 2016-09-30 16,720 New Holding 16,720 $ 145 $ 145
Raymond James Associates 2016-09-30 80,731 Added More 15,310 $ 133 $ 703
World Asset Management Inc 2016-09-30 13,862 New Holding 13,862 $ 120 $ 120
Commonwealth Equity Services Inc 2016-09-30 47,496 Added More 13,321 $ 116 $ 414
Tower Research Capital Llc Trc 2016-09-30 13,067 New Holding 13,067 $ 113 $ 113
Qs Investors Llc 2016-09-30 345,293 Added More 12,838 $ 111 $ 3,010
Bell State Bank Trust 2016-09-30 287,970 Added More 12,620 $ 110 $ 2,511
Greenleaf Trust 2016-09-30 12,486 New Holding 12,486 $ 108 $ 108
Geneva Advisors Llc 2016-09-30 77,385 Added More 11,908 $ 103 $ 674
Tfs Capital Llc 2016-09-30 11,254 New Holding 11,254 $ 98 $ 98
Prudential Plc 2016-09-30 28,200 Added More 10,500 $ 91 $ 245
Fox Run Management L L C 2016-09-30 10,500 New Holding 10,500 $ 91 $ 91
Fisher Asset Management Llc 2016-09-30 10,368 New Holding 10,368 $ 90 $ 90
Blackrock Investment Management Llc 2016-09-30 179,407 Added More 9,253 $ 80 $ 1,564
Legal General Group Plc 2016-09-30 222,100 Added More 8,631 $ 75 $ 1,936
Raymond James Financial Services Advisors Inc 2016-09-30 129,251 Added More 7,689 $ 67 $ 1,127
Next Financial Group Inc 2016-09-30 13,895 Added More 7,670 $ 66 $ 121
Teachers Advisors Inc 2016-09-30 344,848 Added More 7,450 $ 64 $ 3,007
Grisanti Capital Management Llc 2016-09-30 7,230 New Holding 7,230 $ 63 $ 63
California State Teachers Retirement System 2016-09-30 759,462 Added More 7,000 $ 61 $ 6,622
Ladenburg Thalmann Financial Services Inc 2016-09-30 126,902 Added More 6,998 $ 61 $ 1,106
I G Investment Management Ltd 2016-09-30 68,069 Added More 5,801 $ 50 $ 593
Stifel Financial Corp 2016-09-30 172,718 Added More 5,251 $ 45 $ 1,506
Crawford Investment Counsel Inc 2016-09-30 159,550 Added More 5,125 $ 44 $ 1,391
Us Bancorp De 2016-09-30 26,017 Added More 4,622 $ 40 $ 226
Point72 Asia Hong Kong Ltd 2016-09-30 4,700 Added More 4,400 $ 38 $ 40
National Asset Management Inc 2016-09-30 20,674 Added More 3,766 $ 32 $ 180
Salem Investment Counselors Inc 2016-09-30 2,655 New Holding 2,655 $ 23 $ 23
Pacer Advisors Inc 2016-09-30 30,024 Added More 2,527 $ 22 $ 261
Coe Capital Management Llc 2016-09-30 16,615 Added More 2,330 $ 20 $ 144
Private Advisor Group Llc 2016-09-30 70,031 Added More 2,289 $ 19 $ 610
Arrowpoint Asset Management Llc 2016-09-30 1,900 New Holding 1,900 $ 16 $ 16
Envestnet Asset Management Inc 2016-09-30 2,919 Added More 1,810 $ 15 $ 25
Wedbush Securities Inc 2016-09-30 16,772 Added More 1,637 $ 14 $ 146
Cutler Group Lp 2016-09-30 1,600 New Holding 1,600 $ 13 $ 13
Camelot Portfolios Llc 2016-09-30 188,067 Added More 1,544 $ 13 $ 1,639
Sheaff Brock Investment Advisors Llc 2016-09-30 15,740 Added More 1,542 $ 13 $ 137
Cubist Systematic Strategies Llc 2016-09-30 44,496 Added More 1,397 $ 12 $ 388
Optimum Investment Advisors 2016-09-30 21,906 Added More 1,358 $ 11 $ 191
Cambridge Investment Research Advisors Inc 2016-09-30 27,524 Added More 1,207 $ 10 $ 240
Commonwealth Bank Of Australia 2016-09-30 1,175 New Holding 1,175 $ 10 $ 10
Penserra Capital Management Llc 2016-09-30 5,009 Added More 1,152 $ 10 $ 43
Zurcher Kantonalbank Zurich Cantonalbank 2016-09-30 8,808 Added More 1,094 $ 9 $ 76
Winch Advisory Services Llc 2016-09-30 1,222 Added More 1,000 $ 8 $ 10
Advisory Services Network Llc 2016-09-30 1,239 Added More 353 $ 3 $ 10
Pacad Investment Ltd 2016-09-30 28,765 Added More 300 $ 2 $ 250
Woodmont Investment Counsel Llc 2016-09-30 280 New Holding 280 $ 2 $ 2
Linscomb Williams Inc 2016-09-30 10,219 Added More 204 $ 1 $ 89
Elite Wealth Management Llc 2016-09-30 200 New Holding 200 $ 1 $ 1
Integrated Wealth Management 2016-09-30 200 New Holding 200 $ 1 $ 1
Washington Trust Bank 2016-09-30 161 New Holding 161 $ 1 $ 1
Clarivest Asset Management Llc 2016-09-30 80 Added More 27 $ 0 $ 0
Checchi Capital Advisers Llc 2016-09-30 11,461 Added More 9 $ 0 $ 99
Bronfman E L Rothschild L P 2016-09-30 3,197 No Change 0 $ 0 $ 27
Panagora Asset Management Inc 2016-09-30 13,800 No Change 0 $ 0 $ 120
Cedar Wealth Management Llc 2016-09-30 4,566 No Change 0 $ 0 $ 39
Proficio Capital Partners Llc 2016-09-30 77 No Change 0 $ 0 $ 0
Delphi Financial Group Inc 2016-09-30 5,954,200 No Change 0 $ 0 $ 51,920
Sphinx Trading Lp 2016-09-30 10,000 No Change 0 $ 0 $ 87
Entrustpermal Management Llc 2016-09-30 272,433 No Change 0 $ 0 $ 2,375
Cibc Asset Management Inc 2016-09-30 12,530 No Change 0 $ 0 $ 109
Sharkey Howes Javer 2016-09-30 4,125 No Change 0 $ 0 $ 35
Parkside Financial Bank Trust 2016-09-30 4,846 No Change 0 $ 0 $ 42
American Financial Group Inc 2016-09-30 2,160,000 No Change 0 $ 0 $ 18,835
Eagle Asset Management Inc 2016-09-30 32,379 No Change 0 $ 0 $ 282
Cue Financial Group Inc 2016-09-30 25,300 No Change 0 $ 0 $ 220
Dreman Value Management L L C 2016-09-30 345 No Change 0 $ 0 $ 3
Diam Co Ltd 2016-09-30 29,000 No Change 0 $ 0 $ 252
State Treasurer State Of Michigan 2016-09-30 15,604,284 No Change 0 $ 0 $ 136,069
Meristem Llp 2016-09-30 48,500 No Change 0 $ 0 $ 422
Eidelman Virant Capital 2016-09-30 14,000 No Change 0 $ 0 $ 122
Mark Sheptoff Financial Planning Llc 2016-09-30 138 No Change 0 $ 0 $ 1
American National Registered Investment Advisor Inc 2016-09-30 43,000 No Change 0 $ 0 $ 374
Archford Capital Strategies Llc 2016-09-30 5,800 No Change 0 $ 0 $ 50
Wfg Advisors Lp 2016-09-30 300 No Change 0 $ 0 $ 2
Hancock Holding Co 2016-09-30 30,000 No Change 0 $ 0 $ 261
Gw Henssler Associates Ltd 2016-09-30 15,861 No Change 0 $ 0 $ 138
Bb T Corp 2016-09-30 50,660 No Change 0 $ 0 $ 441
Moody National Bank Trust Division 2016-09-30 43,000 No Change 0 $ 0 $ 374
Hudock Capital Group Llc 2016-09-30 4,925 No Change 0 $ 0 $ 42
Utah Retirement Systems 2016-09-30 63,100 No Change 0 $ 0 $ 550
Hrs Investment Holdings Llc 2016-09-30 115,000 No Change 0 $ 0 $ 1,002
Central Trust Co 2016-09-30 1,000 No Change 0 $ 0 $ 8
Hilltop Holdings Inc 2016-09-30 25,195 No Change 0 $ 0 $ 219
West Family Investments Inc 2016-09-30 1,307,654 No Change 0 $ 0 $ 11,402
Whitnell Co 2016-09-30 6,180 No Change 0 $ 0 $ 53
Css Llc Il 2016-09-30 20,000 No Change 0 $ 0 $ 174
Winfield Associates Inc 2016-09-30 180 No Change 0 $ 0 $ 1
Private Capital Management Inc 2016-09-30 53,900 No Change 0 $ 0 $ 470
Parkwood Llc 2016-09-30 48,548 No Change 0 $ 0 $ 423
Alpine Woods Capital Investors Llc 2016-09-30 1,196,931 No Change 0 $ 0 $ 10,437
William Harris Investors Inc 2016-09-30 32,000 No Change 0 $ 0 $ 279
Smithfield Trust Co 2016-09-30 300 No Change 0 $ 0 $ 2
United Services Automobile Association 2016-09-30 1,058,900 No Change 0 $ 0 $ 9,233
American National Insurance Co Tx 2016-09-30 102,000 No Change 0 $ 0 $ 889
Blb B Advisors Llc 2016-09-30 19,890 No Change 0 $ 0 $ 173
Baldwin Brothers Inc Ma 2016-09-30 2,000 No Change 0 $ 0 $ 17
Sonora Investment Management Llc 2016-09-30 59,233 No Change 0 $ 0 $ 516
Essex Financial Services Inc 2016-09-30 13,600 No Change 0 $ 0 $ 118
Hudson Valley Investment Advisors Inc Adv 2016-09-30 13,000 No Change 0 $ 0 $ 113
Vsr Financial Services Inc 2016-06-30 12,960 Sold Some -50 $ -0 $ 110
C M Bidwell Associates Ltd 2016-09-30 21,230 Sold Some -70 $ -0 $ 185
Sterling Capital Management Llc 2016-09-30 77,547 Sold Some -121 $ -1 $ 676
Finemark National Bank Trust 2016-09-30 6,000 Sold Some -131 $ -1 $ 52
Outfitter Advisors Ltd 2016-09-30 36,535 Sold Some -250 $ -2 $ 318
Advisor Group Inc 2016-09-30 12,861 Sold Some -307 $ -2 $ 112
Profund Advisors Llc 2016-09-30 20,441 Sold Some -310 $ -2 $ 178
Highlander Capital Management Llc 2016-09-30 55,134 Sold Some -400 $ -3 $ 480
Hanson Mcclain Inc 2016-06-30 0 Sold All -440 $ -3 $ 0
Synovus Financial Corp 2016-09-30 6,426 Sold Some -560 $ -4 $ 56
Pnc Financial Services Group Inc 2016-09-30 58,352 Sold Some -600 $ -5 $ 508
Ibm Retirement Fund 2016-09-30 34,251 Sold Some -678 $ -5 $ 298
First Allied Advisory Services Inc 2016-09-30 25,511 Sold Some -741 $ -6 $ 222
American International Group Inc 2016-09-30 10,734 Sold Some -841 $ -7 $ 93
Blackrock Inc 2016-09-30 143,114 Sold Some -953 $ -8 $ 1,247
Springbok Capital Management Llc 2016-09-30 0 Sold All -1,000 $ -8 $ 0
Bb T Securities Llc 2016-09-30 16,953 Sold Some -1,287 $ -11 $ 147
Kanaly Trust Co 2016-09-30 1,424 Sold Some -1,374 $ -11 $ 12
Ifp Advisors Inc 2016-09-30 21,007 Sold Some -1,431 $ -12 $ 183
Simplex Trading Llc 2016-09-30 0 Sold All -1,576 $ -13 $ 0
First Heartland Consultants Inc 2016-09-30 17,380 Sold Some -1,689 $ -14 $ 151
Ausdal Financial Partners Inc 2016-09-30 83,173 Sold Some -1,700 $ -14 $ 725
Sigma Planning Corp 2016-09-30 20,988 Sold Some -1,893 $ -16 $ 183
Highpoint Advisor Group Llc 2016-09-30 49,992 Sold Some -1,949 $ -16 $ 435
Cibc World Markets Inc 2016-09-30 25,558 Sold Some -2,425 $ -21 $ 222
Lakeview Capital Partners Llc 2016-09-30 14,500 Sold Some -2,814 $ -24 $ 126
Livingston Group Asset Management Co Operating As Southport 2016-09-30 0 Sold All -3,221 $ -28 $ 0
Hsbc Holdings Plc 2016-09-30 328,944 Sold Some -4,050 $ -35 $ 2,868
Msi Financial Services Inc 2016-09-30 7,533 Sold Some -9,500 $ -82 $ 65
Allegis Investment Advisors Llc 2016-09-30 21,950 Sold Some -9,600 $ -83 $ 191
Capital Investment Advisors Llc 2016-09-30 13,100 Sold Some -10,000 $ -87 $ 114
Osborn Rohs Williams Donohoe Ltd 2016-09-30 0 Sold All -10,050 $ -87 $ 0
Nwam Llc 2016-09-30 0 Sold All -10,260 $ -89 $ 0
Edmond De Rothschild Suisse S A 2016-09-30 4,590 Sold Some -11,000 $ -95 $ 40
Edmond De Rothschild Holding S A 2016-09-30 4,590 Sold Some -11,000 $ -95 $ 40
Gideon Capital Advisors Inc 2016-09-30 0 Sold All -11,187 $ -97 $ 0
Teacher Retirement System Of Texas 2016-09-30 37,171 Sold Some -11,763 $ -102 $ 324
Fiera Capital Corp 2016-09-30 292,200 Sold Some -11,800 $ -102 $ 2,547
Proshare Advisors Llc 2016-09-30 78,733 Sold Some -12,063 $ -105 $ 686
Sequoia Financial Advisors Llc 2016-09-30 99,571 Sold Some -13,375 $ -116 $ 868
Creative Planning 2016-09-30 24,104 Sold Some -13,579 $ -118 $ 210
Pvg Asset Management 2016-06-30 558,672 Sold Some -14,231 $ -121 $ 4,782
Perkins Investment Management Llc 2016-09-30 1,429,093 Sold Some -14,459 $ -126 $ 12,461
Rnc Capital Management Llc 2016-09-30 0 Sold All -15,000 $ -130 $ 0
Rafferty Asset Management Llc 2016-09-30 22,213 Sold Some -15,045 $ -131 $ 193
Nomura Asset Management Co Ltd 2016-09-30 0 Sold All -15,200 $ -132 $ 0
Quantbot Technologies Lp 2016-09-30 47,579 Sold Some -16,088 $ -140 $ 414
Condor Capital Management 2016-09-30 0 Sold All -17,106 $ -149 $ 0
Quantitative Systematic Strategies Llc 2016-09-30 0 Sold All -19,459 $ -169 $ 0
Systematic Financial Management Lp 2016-09-30 191,115 Sold Some -20,320 $ -177 $ 1,666
Swiss National Bank 2016-09-30 554,900 Sold Some -21,200 $ -184 $ 4,838
Van Eck Associates Corp 2016-09-30 584,342 Sold Some -22,835 $ -199 $ 5,095
Spot Trading L L C 2016-09-30 19,500 Sold Some -22,984 $ -200 $ 170
Hollencrest Securities Llc 2016-09-30 0 Sold All -23,431 $ -204 $ 0
Clear Harbor Asset Management Llc 2016-09-30 429,756 Sold Some -24,145 $ -210 $ 3,747
Mackenzie Financial Corp 2016-09-30 0 Sold All -24,511 $ -213 $ 0
Virtu Financial Llc 2016-09-30 0 Sold All -26,933 $ -234 $ 0
Advance Capital I Inc 2016-09-30 0 Sold All -35,400 $ -308 $ 0
Tudor Investment Corp Et Al 2016-09-30 132,046 Sold Some -39,523 $ -344 $ 1,151
Capital Fund Management S A 2016-09-30 152,749 Sold Some -45,288 $ -394 $ 1,331
Squarepoint Ops Llc 2016-09-30 0 Sold All -51,332 $ -447 $ 0
Secor Capital Advisors Lp 2016-09-30 0 Sold All -58,238 $ -507 $ 0
Barings Llc 2016-09-30 0 Sold All -66,300 $ -578 $ 0
Kames Capital Plc 2016-09-30 735,091 Sold Some -72,172 $ -629 $ 6,409
Cedar Hill Associates Llc 2016-09-30 533,398 Sold Some -76,525 $ -667 $ 4,651
Cipher Capital Lp 2016-09-30 93,282 Sold Some -87,945 $ -766 $ 813
Quadrature Capital Ltd 2016-09-30 0 Sold All -91,000 $ -793 $ 0
Advisors Asset Management Inc 2016-09-30 854,400 Sold Some -101,905 $ -888 $ 7,450
Counsel Portfolio Services Inc 2016-06-30 0 Sold All -107,142 $ -917 $ 0
Parametric Portfolio Associates Llc 2016-09-30 3,396,496 Sold Some -118,500 $ -1,033 $ 29,617
New York State Common Retirement Fund 2016-09-30 706,600 Sold Some -134,700 $ -1,174 $ 6,161
Aperio Group Llc 2016-09-30 1,275,044 Sold Some -211,736 $ -1,846 $ 11,118
Walleye Trading Llc 2016-09-30 955,307 Sold Some -250,862 $ -2,187 $ 8,330
Sg Americas Securities Llc 2016-09-30 165,367 Sold Some -345,296 $ -3,010 $ 1,442
Brandywine Global Investment Management Llc 2016-09-30 6,663,923 Sold Some -400,358 $ -3,491 $ 58,109
Whitebox Advisors Llc 2016-09-30 2,440,082 Sold Some -2,393,388 $ -20,870 $ 21,277